Time;durP1;ratioP1;P1;durP2;ratioP2;P2;SDS_P1;SDS_P2;PMS_P1;PMS_P2;Temp;Humidity;BMP_temperature;BMP_pressure;BME280_temperature;BME280_humidity;BME280_pressure;Samples;Min_cycle;Max_cycle;Signal;HPM_P1;HPM_P2
2023/08/03 00:00:06;;;;;;;8.30;3.78;;;22.20;72.70;;;;;;5082750;28;20016;-48
2023/08/03 00:02:37;;;;;;;9.60;3.65;;;22.20;72.80;;;;;;5081007;28;20055;-49
2023/08/03 00:05:04;;;;;;;9.93;3.70;;;22.20;72.80;;;;;;5075955;28;20051;-52
2023/08/03 00:07:31;;;;;;;12.23;3.92;;;22.20;72.70;;;;;;5066177;28;20021;-48
2023/08/03 00:09:56;;;;;;;12.35;4.07;;;22.20;72.80;;;;;;5069316;28;20038;-46
2023/08/03 00:12:22;;;;;;;9.38;3.40;;;22.20;72.80;;;;;;5069180;28;20120;-50
2023/08/03 00:14:52;;;;;;;8.77;3.35;;;22.20;72.70;;;;;;5073190;28;20661;-50
2023/08/03 00:17:18;;;;;;;7.45;3.67;;;22.20;72.80;;;;;;5081190;28;20440;-51
2023/08/03 00:19:44;;;;;;;12.50;3.83;;;22.20;72.80;;;;;;5080449;28;20074;-46
2023/08/03 00:22:10;;;;;;;14.90;3.58;;;22.20;72.70;;;;;;5081850;28;20065;-51
2023/08/03 00:24:36;;;;;;;9.23;3.42;;;22.20;72.60;;;;;;5081349;28;20028;-48
2023/08/03 00:27:02;;;;;;;14.05;3.50;;;22.20;72.70;;;;;;5053414;28;20028;-48
2023/08/03 00:29:28;;;;;;;7.78;3.33;;;22.20;72.60;;;;;;5048008;28;20044;-51
2023/08/03 00:31:53;;;;;;;7.70;3.60;;;22.20;72.40;;;;;;5069109;28;20503;-48
2023/08/03 00:34:20;;;;;;;8.52;3.65;;;22.20;72.50;;;;;;5047854;28;20036;-50
2023/08/03 00:36:45;;;;;;;8.18;3.28;;;22.20;72.40;;;;;;5065899;28;20020;-51
2023/08/03 00:39:11;;;;;;;11.20;3.70;;;22.20;72.40;;;;;;5069309;28;20035;-50
2023/08/03 00:41:38;;;;;;;9.63;3.40;;;22.20;72.40;;;;;;5072056;28;20056;-50
2023/08/03 00:44:04;;;;;;;10.90;3.65;;;22.20;72.50;;;;;;5063049;28;20036;-50
2023/08/03 00:46:30;;;;;;;8.55;2.80;;;22.20;72.40;;;;;;5067506;28;20028;-48
2023/08/03 00:48:55;;;;;;;9.18;3.17;;;22.20;72.30;;;;;;5062509;28;20407;-45
2023/08/03 00:51:21;;;;;;;8.55;2.97;;;22.20;72.40;;;;;;5080125;28;20033;-47
2023/08/03 00:53:47;;;;;;;9.38;3.70;;;22.20;72.30;;;;;;5077286;28;20024;-48
2023/08/03 00:56:14;;;;;;;6.03;3.22;;;22.20;72.30;;;;;;5062144;28;20104;-45
2023/08/03 00:58:40;;;;;;;8.75;3.50;;;22.20;72.30;;;;;;5080118;28;20464;-50
2023/08/03 01:01:07;;;;;;;7.18;3.03;;;22.20;72.30;;;;;;5082350;28;20028;-49
2023/08/03 01:03:33;;;;;;;11.95;3.13;;;22.20;72.30;;;;;;5051099;28;20025;-48
2023/08/03 01:05:59;;;;;;;9.50;3.22;;;22.20;72.40;;;;;;5067699;28;20059;-46
2023/08/03 01:08:25;;;;;;;6.72;3.05;;;22.20;72.30;;;;;;5050363;28;20055;-51
2023/08/03 01:10:52;;;;;;;8.43;3.20;;;22.20;72.40;;;;;;5053651;28;20036;-46
2023/08/03 01:13:19;;;;;;;6.10;2.92;;;22.20;72.30;;;;;;5082539;28;20035;-50
2023/08/03 01:15:45;;;;;;;7.93;3.35;;;22.20;72.40;;;;;;5080129;28;20089;-48
2023/08/03 01:18:12;;;;;;;9.88;3.13;;;22.20;72.40;;;;;;5074425;28;20088;-50
2023/08/03 01:20:41;;;;;;;7.03;2.95;;;22.20;72.50;;;;;;5079946;28;20400;-46
2023/08/03 01:23:08;;;;;;;8.95;3.22;;;22.20;72.40;;;;;;5076344;28;20082;-51
2023/08/03 01:25:35;;;;;;;6.15;3.05;;;22.20;72.60;;;;;;5077174;28;20397;-44
2023/08/03 01:28:03;;;;;;;7.35;2.80;;;22.20;72.70;;;;;;5074317;28;20593;-47
2023/08/03 01:30:30;;;;;;;8.57;2.95;;;22.20;72.50;;;;;;5055806;28;20021;-50
2023/08/03 01:32:56;;;;;;;6.38;2.95;;;22.20;72.50;;;;;;5062989;28;20432;-49
2023/08/03 01:35:22;;;;;;;11.25;3.30;;;22.20;72.50;;;;;;5069147;28;20025;-44
2023/08/03 01:37:49;;;;;;;7.55;2.78;;;22.20;72.50;;;;;;5075415;28;20024;-49
2023/08/03 01:40:17;;;;;;;6.47;3.33;;;22.20;72.50;;;;;;5048442;28;20028;-43
2023/08/03 01:42:44;;;;;;;7.60;3.13;;;22.20;72.50;;;;;;5055674;28;20123;-44
2023/08/03 01:45:11;;;;;;;8.68;2.60;;;22.20;72.40;;;;;;5078130;28;20091;-49
2023/08/03 01:47:37;;;;;;;5.63;2.78;;;22.20;72.50;;;;;;5073849;28;20107;-48
2023/08/03 01:50:03;;;;;;;7.80;2.90;;;22.20;72.90;;;;;;5085470;28;20050;-43
2023/08/03 01:52:29;;;;;;;6.22;2.72;;;22.20;72.60;;;;;;5073661;28;20032;-46
2023/08/03 01:54:55;;;;;;;5.28;2.70;;;22.20;72.50;;;;;;5082637;28;20024;-48
2023/08/03 01:57:21;;;;;;;5.80;2.80;;;22.20;72.60;;;;;;5067592;28;20140;-45
2023/08/03 01:59:47;;;;;;;3.92;2.50;;;22.10;72.50;;;;;;5071531;28;20082;-46
2023/08/03 02:02:13;;;;;;;7.78;2.75;;;22.20;72.60;;;;;;5064091;28;20032;-51
2023/08/03 02:04:39;;;;;;;6.22;2.72;;;22.20;72.60;;;;;;5076639;28;20085;-46
2023/08/03 02:07:17;;;;;;;6.18;2.58;;;22.20;72.60;;;;;;5054246;28;20070;-51
2023/08/03 02:09:43;;;;;;;8.10;2.40;;;22.20;72.60;;;;;;5050784;28;20138;-48
2023/08/03 02:12:09;;;;;;;5.05;2.70;;;22.10;72.60;;;;;;5069753;28;20527;-45
2023/08/03 02:14:35;;;;;;;6.10;2.55;;;22.20;72.60;;;;;;5072583;28;20047;-43
2023/08/03 02:17:01;;;;;;;7.25;2.65;;;22.20;72.60;;;;;;5064644;28;20373;-44
2023/08/03 02:19:28;;;;;;;5.47;2.70;;;22.20;72.60;;;;;;5072816;28;20036;-46
2023/08/03 02:21:54;;;;;;;4.93;2.50;;;22.20;72.60;;;;;;5064737;28;20081;-44
2023/08/03 02:24:20;;;;;;;5.78;2.67;;;22.20;72.60;;;;;;5082454;28;20047;-45
2023/08/03 02:26:46;;;;;;;9.18;2.33;;;22.10;72.60;;;;;;5064833;28;20657;-48
2023/08/03 02:29:11;;;;;;;7.53;2.63;;;22.20;72.80;;;;;;5078694;28;20036;-50
2023/08/03 02:31:37;;;;;;;7.22;2.83;;;22.20;72.70;;;;;;5061066;28;20048;-45
2023/08/03 02:34:04;;;;;;;5.20;2.42;;;22.20;72.70;;;;;;5064926;28;20024;-46
2023/08/03 02:36:37;;;;;;;5.15;2.50;;;22.20;72.70;;;;;;5056470;28;20406;-48
2023/08/03 02:39:08;;;;;;;6.28;2.72;;;22.20;72.50;;;;;;5057986;28;20155;-43
2023/08/03 02:41:38;;;;;;;7.05;3.08;;;22.10;72.50;;;;;;5048711;28;20515;-43
2023/08/03 02:44:05;;;;;;;5.15;2.80;;;22.20;72.50;;;;;;5057127;28;20028;-46
2023/08/03 02:46:32;;;;;;;6.53;2.78;;;22.20;72.50;;;;;;5064865;28;20121;-43
2023/08/03 02:49:00;;;;;;;9.50;2.70;;;22.20;72.60;;;;;;5073364;28;20118;-43
2023/08/03 02:51:28;;;;;;;6.38;2.75;;;22.20;72.50;;;;;;5063530;28;20024;-43
2023/08/03 02:53:53;;;;;;;6.22;2.92;;;22.20;72.50;;;;;;5078819;28;20040;-43
2023/08/03 02:56:19;;;;;;;8.65;2.67;;;22.20;72.60;;;;;;5066306;28;20549;-47
2023/08/03 02:58:50;;;;;;;6.07;2.50;;;22.20;72.80;;;;;;5064759;28;20033;-47
2023/08/03 03:01:26;;;;;;;11.73;2.35;;;22.10;72.80;;;;;;5053258;28;20021;-50
2023/08/03 03:03:55;;;;;;;14.80;3.05;;;22.20;72.80;;;;;;5068022;28;20109;-49
2023/08/03 03:06:20;;;;;;;7.93;2.63;;;22.20;72.90;;;;;;5059168;28;20630;-50
2023/08/03 03:08:49;;;;;;;5.47;2.30;;;22.20;72.80;;;;;;5068947;28;20420;-48
2023/08/03 03:11:15;;;;;;;7.38;2.40;;;22.10;72.90;;;;;;5065635;28;20054;-48
2023/08/03 03:13:41;;;;;;;4.95;2.17;;;22.20;72.90;;;;;;5054408;28;20093;-51
2023/08/03 03:16:07;;;;;;;7.25;2.33;;;22.20;72.90;;;;;;5069875;28;20039;-45
2023/08/03 03:18:33;;;;;;;6.85;2.60;;;22.20;73.00;;;;;;5079261;28;20451;-48
2023/08/03 03:20:59;;;;;;;8.38;2.58;;;22.10;72.80;;;;;;5067251;28;20031;-44
2023/08/03 03:23:24;;;;;;;6.22;2.13;;;22.10;72.70;;;;;;5068591;28;20036;-45
2023/08/03 03:25:50;;;;;;;8.10;2.47;;;22.10;72.80;;;;;;5085241;28;20462;-46
2023/08/03 03:28:16;;;;;;;7.38;2.30;;;22.10;72.80;;;;;;5077899;28;20070;-44
2023/08/03 03:30:42;;;;;;;10.80;2.42;;;22.10;72.80;;;;;;5065325;28;20446;-44
2023/08/03 03:33:08;;;;;;;5.10;2.28;;;22.10;72.80;;;;;;5085941;28;20025;-43
2023/08/03 03:35:38;;;;;;;6.50;2.30;;;22.10;72.70;;;;;;5043240;28;20024;-43
2023/08/03 03:38:05;;;;;;;5.05;2.42;;;22.10;72.80;;;;;;5085566;28;20049;-43
2023/08/03 03:40:31;;;;;;;4.57;2.33;;;22.10;72.70;;;;;;5067001;28;20074;-46
2023/08/03 03:42:59;;;;;;;3.70;2.17;;;22.10;72.70;;;;;;5067334;28;20369;-43
2023/08/03 03:45:26;;;;;;;5.13;1.98;;;22.10;72.80;;;;;;5070446;28;20025;-43
2023/08/03 03:47:52;;;;;;;5.05;1.92;;;22.10;72.80;;;;;;5076177;28;20513;-45
2023/08/03 03:50:17;;;;;;;4.13;2.15;;;22.10;72.80;;;;;;5088941;28;20107;-46
2023/08/03 03:52:43;;;;;;;6.60;2.50;;;22.10;72.80;;;;;;5085831;28;20032;-43
2023/08/03 03:55:14;;;;;;;7.00;2.67;;;22.10;72.70;;;;;;5070700;28;20028;-43
2023/08/03 03:57:42;;;;;;;5.78;1.95;;;22.10;72.70;;;;;;5070860;28;20024;-43
2023/08/03 04:00:09;;;;;;;7.68;2.22;;;22.10;72.80;;;;;;5064992;28;20029;-43
2023/08/03 04:02:40;;;;;;;3.00;1.83;;;22.10;72.70;;;;;;5068627;28;20025;-44
2023/08/03 04:05:09;;;;;;;4.63;2.03;;;22.10;72.70;;;;;;5051174;28;20531;-43
2023/08/03 04:07:35;;;;;;;8.43;2.05;;;22.10;72.70;;;;;;5075747;28;20107;-45
2023/08/03 04:10:01;;;;;;;4.65;2.25;;;22.10;72.70;;;;;;5076268;28;20028;-48
2023/08/03 04:12:26;;;;;;;4.85;2.10;;;22.10;72.70;;;;;;5083181;28;20028;-43
2023/08/03 04:14:52;;;;;;;4.95;2.10;;;22.10;72.70;;;;;;5082343;28;20447;-44
2023/08/03 04:17:18;;;;;;;7.72;1.98;;;22.10;72.70;;;;;;5082428;28;20024;-44
2023/08/03 04:19:44;;;;;;;4.95;2.08;;;22.10;72.70;;;;;;5074311;28;20422;-46
2023/08/03 04:22:10;;;;;;;3.70;1.83;;;22.10;72.70;;;;;;5066718;28;20047;-48
2023/08/03 04:24:38;;;;;;;3.28;1.75;;;22.10;72.70;;;;;;5065715;23;20508;-45
2023/08/03 04:27:06;;;;;;;5.97;2.05;;;22.10;72.70;;;;;;5015423;28;20025;-46
2023/08/03 04:29:32;;;;;;;5.05;2.33;;;22.10;72.60;;;;;;5015746;28;20039;-49
2023/08/03 04:31:58;;;;;;;5.30;2.05;;;22.10;72.70;;;;;;5014760;28;20104;-51
2023/08/03 04:34:24;;;;;;;5.28;1.95;;;22.10;72.60;;;;;;5031877;28;20076;-50
2023/08/03 04:36:57;;;;;;;6.82;2.25;;;22.00;72.60;;;;;;5014778;28;20511;-49
2023/08/03 04:39:23;;;;;;;5.75;2.03;;;22.10;72.60;;;;;;5022646;28;20021;-52
2023/08/03 04:41:49;;;;;;;3.60;2.08;;;22.10;72.60;;;;;;5014134;28;20492;-43
2023/08/03 04:44:17;;;;;;;6.53;2.30;;;22.10;72.60;;;;;;5031638;28;20025;-45
2023/08/03 04:46:44;;;;;;;6.05;2.22;;;22.10;72.60;;;;;;5015109;28;20076;-50
2023/08/03 04:49:13;;;;;;;6.50;2.03;;;22.10;72.60;;;;;;5015295;28;20029;-45
2023/08/03 04:51:43;;;;;;;7.78;1.95;;;22.10;72.60;;;;;;5033156;28;20179;-50
2023/08/03 04:54:13;;;;;;;5.88;2.20;;;22.10;72.50;;;;;;5015221;28;20030;-43
2023/08/03 04:56:39;;;;;;;3.88;2.03;;;22.10;72.50;;;;;;5032567;28;20017;-46
2023/08/03 04:59:05;;;;;;;5.53;2.20;;;22.10;72.40;;;;;;5016406;28;20029;-46
2023/08/03 05:01:32;;;;;;;6.45;2.30;;;22.10;72.50;;;;;;4999384;28;20035;-49
2023/08/03 05:04:02;;;;;;;5.18;2.38;;;22.10;72.40;;;;;;5013584;28;20131;-46
2023/08/03 05:06:28;;;;;;;6.00;2.50;;;22.10;72.40;;;;;;5014440;28;20025;-43
2023/08/03 05:08:54;;;;;;;13.27;2.53;;;22.10;72.30;;;;;;5031676;28;20032;-49
2023/08/03 05:11:25;;;;;;;5.22;2.20;;;22.10;72.30;;;;;;5020999;28;20028;-43
2023/08/03 05:13:51;;;;;;;5.55;2.35;;;22.10;72.30;;;;;;5014844;28;20033;-51
2023/08/03 05:16:23;;;;;;;4.78;2.15;;;22.10;72.20;;;;;;5031745;28;20076;-45
2023/08/03 05:18:49;;;;;;;5.75;2.28;;;22.10;72.20;;;;;;5031832;28;20021;-47
2023/08/03 05:21:14;;;;;;;9.18;2.63;;;22.10;72.20;;;;;;5031289;28;20030;-44
2023/08/03 05:23:40;;;;;;;7.20;2.40;;;22.10;72.10;;;;;;5032204;28;20111;-52
2023/08/03 05:26:06;;;;;;;5.50;2.67;;;22.10;72.10;;;;;;5031400;28;20029;-52
2023/08/03 05:28:32;;;;;;;7.32;2.70;;;22.10;72.10;;;;;;5031359;28;20481;-52
2023/08/03 05:30:58;;;;;;;7.05;2.60;;;22.10;72.00;;;;;;5031154;28;20047;-51
2023/08/03 05:33:23;;;;;;;6.22;2.47;;;22.10;72.00;;;;;;5031295;28;20537;-49
2023/08/03 05:35:49;;;;;;;6.05;2.28;;;22.10;72.00;;;;;;5031858;28;20434;-46
2023/08/03 05:38:15;;;;;;;7.03;2.47;;;22.10;71.90;;;;;;5031314;28;20076;-50
2023/08/03 05:40:41;;;;;;;8.73;2.38;;;22.10;71.90;;;;;;5017759;28;20029;-50
2023/08/03 05:43:12;;;;;;;4.63;2.28;;;22.10;72.00;;;;;;5027244;28;20029;-48
2023/08/03 05:45:48;;;;;;;7.38;2.67;;;22.10;72.00;;;;;;5035527;28;20117;-46
2023/08/03 05:48:15;;;;;;;7.90;2.50;;;22.10;71.90;;;;;;5030976;28;20104;-49
2023/08/03 05:50:49;;;;;;;6.93;2.58;;;22.10;72.50;;;;;;5030645;28;20029;-43
2023/08/03 05:53:16;;;;;;;8.65;2.67;;;22.10;71.90;;;;;;5031584;28;20029;-49
2023/08/03 05:55:42;;;;;;;7.55;2.75;;;22.10;71.80;;;;;;5029782;28;20036;-50
2023/08/03 05:58:14;;;;;;;7.63;2.58;;;22.10;71.80;;;;;;5030915;28;20427;-43
2023/08/03 06:00:41;;;;;;;11.77;3.10;;;22.10;71.50;;;;;;5023746;28;20044;-48
2023/08/03 06:03:12;;;;;;;10.25;2.72;;;22.20;73.00;;;;;;5031498;28;20026;-45
2023/08/03 06:05:38;;;;;;;12.00;3.35;;;22.20;72.00;;;;;;5031225;28;20037;-50
2023/08/03 06:08:12;;;;;;;16.17;3.58;;;22.30;74.80;;;;;;5031525;28;20037;-47
2023/08/03 06:10:39;;;;;;;15.35;3.58;;;22.40;73.10;;;;;;5031693;28;20497;-49
2023/08/03 06:13:05;;;;;;;18.98;3.67;;;22.40;73.20;;;;;;5030438;28;20029;-44
2023/08/03 06:15:31;;;;;;;18.88;3.60;;;22.40;73.60;;;;;;5031203;28;20496;-45
2023/08/03 06:18:03;;;;;;;20.55;2.92;;;22.50;73.80;;;;;;5030262;28;20068;-45
2023/08/03 06:20:29;;;;;;;21.42;3.38;;;22.50;73.90;;;;;;5030038;28;20028;-47
2023/08/03 06:22:56;;;;;;;13.98;3.55;;;22.50;73.10;;;;;;5028267;28;20033;-45
2023/08/03 06:25:22;;;;;;;15.77;3.42;;;22.50;71.90;;;;;;5028568;28;20033;-45
2023/08/03 06:27:51;;;;;;;17.38;3.70;;;22.40;72.00;;;;;;5030570;28;20037;-46
2023/08/03 06:30:17;;;;;;;14.70;3.53;;;22.40;72.20;;;;;;5016406;28;20030;-44
2023/08/03 06:32:44;;;;;;;16.85;3.63;;;22.30;72.20;;;;;;5031503;28;20022;-48
2023/08/03 06:35:38;;;;;;;28.25;4.60;;;22.30;72.40;;;;;;5029971;28;20620;-42
2023/08/03 06:38:05;;;;;;;20.80;5.13;;;22.30;74.00;;;;;;5026692;28;20067;-44
2023/08/03 06:40:34;;;;;;;21.25;4.00;;;22.30;74.70;;;;;;5031315;28;20029;-43
2023/08/03 06:43:01;;;;;;;21.00;4.50;;;22.30;74.30;;;;;;5031392;28;20026;-48
2023/08/03 06:45:30;;;;;;;17.42;4.28;;;22.30;74.60;;;;;;5028328;28;20029;-43
2023/08/03 06:48:00;;;;;;;22.73;4.80;;;22.40;74.20;;;;;;5030317;28;20044;-44
2023/08/03 06:50:28;;;;;;;19.30;4.88;;;22.40;75.80;;;;;;5031227;28;20063;-46
2023/08/03 06:52:54;;;;;;;17.40;4.30;;;22.50;75.30;;;;;;5031293;28;20033;-47
2023/08/03 06:55:20;;;;;;;21.02;5.05;;;22.40;74.30;;;;;;5030873;28;20671;-48
2023/08/03 06:57:46;;;;;;;26.83;6.30;;;22.40;74.90;;;;;;5031260;28;20026;-43
2023/08/03 07:00:12;;;;;;;24.67;5.82;;;22.40;74.80;;;;;;5030684;28;20493;-45
2023/08/03 07:02:38;;;;;;;23.70;5.60;;;22.40;75.10;;;;;;5027583;28;20057;-42
2023/08/03 07:05:04;;;;;;;21.33;5.63;;;22.40;74.90;;;;;;5032039;28;20076;-43
2023/08/03 07:07:31;;;;;;;21.55;5.57;;;22.40;75.70;;;;;;5035251;28;20043;-49
2023/08/03 07:09:57;;;;;;;23.50;5.60;;;22.40;76.90;;;;;;5034944;28;20030;-49
2023/08/03 07:12:22;;;;;;;26.48;6.38;;;22.40;76.80;;;;;;5035128;28;20392;-46
2023/08/03 07:14:48;;;;;;;18.80;5.97;;;22.30;76.60;;;;;;5034511;28;20029;-48
2023/08/03 07:17:14;;;;;;;16.58;5.88;;;22.30;76.60;;;;;;5034806;28;20064;-46
2023/08/03 07:19:41;;;;;;;20.83;6.07;;;22.30;76.50;;;;;;5034922;28;20481;-47
2023/08/03 07:22:08;;;;;;;21.58;5.57;;;22.30;76.50;;;;;;5017071;28;20396;-49
2023/08/03 07:24:35;;;;;;;21.85;6.20;;;22.30;76.60;;;;;;5034581;28;20525;-51
2023/08/03 07:27:01;;;;;;;20.05;6.10;;;22.30;76.00;;;;;;5017051;28;20049;-45
2023/08/03 07:29:32;;;;;;;25.02;6.57;;;22.30;76.60;;;;;;5034759;28;20428;-46
2023/08/03 07:31:58;;;;;;;19.63;6.35;;;22.30;76.40;;;;;;5016954;28;20051;-49
2023/08/03 07:34:24;;;;;;;19.98;6.22;;;22.30;75.00;;;;;;5034788;28;20503;-47
2023/08/03 07:36:54;;;;;;;19.08;5.90;;;22.30;76.20;;;;;;5034352;28;20025;-48
2023/08/03 07:39:21;;;;;;;21.92;6.25;;;22.30;75.40;;;;;;5034494;28;20044;-48
2023/08/03 07:41:47;;;;;;;18.75;5.82;;;22.30;75.00;;;;;;5034494;28;20542;-46
2023/08/03 07:44:15;;;;;;;21.98;6.18;;;22.30;75.60;;;;;;5034414;28;20104;-45
2023/08/03 07:46:41;;;;;;;18.88;5.97;;;22.30;75.10;;;;;;5034181;28;20038;-51
2023/08/03 07:49:07;;;;;;;26.98;6.35;;;22.20;74.60;;;;;;5034295;28;20370;-51
2023/08/03 07:51:32;;;;;;;23.20;5.72;;;22.30;74.90;;;;;;5034415;28;20028;-48
2023/08/03 07:53:58;;;;;;;18.58;5.57;;;22.20;75.00;;;;;;5016613;28;20112;-51
2023/08/03 07:56:24;;;;;;;19.73;5.65;;;22.30;74.10;;;;;;5033929;28;20552;-49
2023/08/03 07:58:51;;;;;;;19.55;6.05;;;22.20;74.60;;;;;;5034100;28;20032;-48
2023/08/03 08:01:18;;;;;;;22.52;6.85;;;22.30;74.00;;;;;;5034131;28;20488;-43
2023/08/03 08:03:44;;;;;;;20.83;6.03;;;22.30;74.40;;;;;;5033972;28;20485;-48
2023/08/03 08:06:11;;;;;;;20.08;6.43;;;22.30;74.20;;;;;;5033700;28;20056;-45
2023/08/03 08:08:38;;;;;;;18.42;5.75;;;22.30;74.30;;;;;;5033913;28;20146;-47
2023/08/03 08:11:05;;;;;;;22.98;6.80;;;22.30;74.10;;;;;;5034048;28;20030;-43
2023/08/03 08:13:31;;;;;;;23.65;7.07;;;22.30;73.90;;;;;;5033950;28;20022;-45
2023/08/03 08:16:06;;;;;;;22.90;6.72;;;22.20;73.60;;;;;;5033519;28;20025;-51
2023/08/03 08:18:33;;;;;;;19.55;6.88;;;22.30;74.00;;;;;;5033863;28;20091;-44
2023/08/03 08:21:00;;;;;;;19.90;6.35;;;22.30;73.80;;;;;;5033801;28;20026;-44
2023/08/03 08:23:27;;;;;;;23.60;6.45;;;22.30;73.80;;;;;;5033525;28;20092;-48
2023/08/03 08:25:52;;;;;;;19.35;6.38;;;22.30;73.70;;;;;;5033374;28;20037;-45
2023/08/03 08:28:19;;;;;;;18.52;5.93;;;22.30;73.90;;;;;;5033504;28;20103;-49
2023/08/03 08:30:45;;;;;;;20.10;6.50;;;22.30;73.40;;;;;;5033620;28;20021;-48
2023/08/03 08:33:13;;;;;;;20.42;6.50;;;22.30;73.20;;;;;;5033428;28;20030;-49
2023/08/03 08:35:39;;;;;;;19.52;6.75;;;22.30;73.60;;;;;;5033340;28;20056;-49
2023/08/03 08:38:05;;;;;;;17.40;6.30;;;22.30;73.70;;;;;;5033408;28;20068;-49
2023/08/03 08:40:35;;;;;;;18.40;6.50;;;22.30;73.80;;;;;;5033307;28;20029;-45
2023/08/03 08:43:02;;;;;;;18.90;6.22;;;22.30;73.60;;;;;;5033341;28;20029;-45
2023/08/03 08:45:30;;;;;;;16.25;6.00;;;22.30;73.40;;;;;;5033036;28;20361;-51
2023/08/03 08:47:56;;;;;;;17.90;5.55;;;22.30;73.70;;;;;;5033241;28;20049;-47
2023/08/03 08:50:22;;;;;;;23.02;6.32;;;22.30;73.70;;;;;;5033081;28;20059;-46
2023/08/03 08:52:49;;;;;;;20.30;5.78;;;22.30;74.30;;;;;;5033075;28;20041;-45
2023/08/03 08:55:19;;;;;;;16.08;5.95;;;22.30;73.80;;;;;;5015335;28;20030;-45
2023/08/03 08:57:45;;;;;;;19.02;5.20;;;22.30;73.80;;;;;;5033151;28;20021;-46
2023/08/03 09:00:12;;;;;;;19.10;5.65;;;22.30;73.80;;;;;;5032926;28;20036;-43
2023/08/03 09:02:38;;;;;;;14.93;5.20;;;22.30;73.80;;;;;;5033216;28;20025;-47
2023/08/03 09:05:12;;;;;;;14.70;5.13;;;22.30;73.70;;;;;;5032477;28;20026;-51
2023/08/03 09:07:38;;;;;;;15.88;5.25;;;22.30;73.80;;;;;;5032618;28;20029;-46
2023/08/03 09:10:04;;;;;;;15.82;5.80;;;22.30;73.60;;;;;;5032678;28;20496;-46
2023/08/03 09:12:30;;;;;;;18.20;5.80;;;22.30;73.60;;;;;;5033082;28;20033;-43
2023/08/03 09:14:57;;;;;;;18.90;5.88;;;22.30;73.70;;;;;;5032432;28;20026;-46
2023/08/03 09:17:26;;;;;;;16.70;6.05;;;22.30;73.50;;;;;;5015020;28;20025;-44
2023/08/03 09:19:53;;;;;;;16.00;5.57;;;22.40;73.60;;;;;;5032637;28;20022;-48
2023/08/03 09:22:20;;;;;;;16.73;5.32;;;22.40;73.50;;;;;;5032431;28;20318;-47
2023/08/03 09:25:05;;;;;;;18.08;5.85;;;22.40;73.50;;;;;;5032204;28;20488;-46
2023/08/03 09:27:32;;;;;;;14.40;4.95;;;22.30;73.40;;;;;;5032047;28;20034;-42
2023/08/03 09:30:03;;;;;;;15.15;5.60;;;22.40;73.50;;;;;;5032520;28;20056;-46
2023/08/03 09:32:34;;;;;;;14.45;4.53;;;22.30;73.40;;;;;;5032522;28;20030;-45
2023/08/03 09:35:19;;;;;;;13.90;4.97;;;22.30;73.40;;;;;;5032216;28;20034;-48
2023/08/03 09:37:45;;;;;;;13.45;5.25;;;22.30;73.30;;;;;;5032258;28;20033;-44
2023/08/03 09:40:11;;;;;;;12.65;5.03;;;22.30;73.30;;;;;;5032177;28;20033;-51
2023/08/03 09:42:37;;;;;;;13.55;4.97;;;22.30;73.30;;;;;;5032188;28;20057;-44
2023/08/03 09:45:05;;;;;;;16.80;5.68;;;22.30;73.30;;;;;;5031681;28;20049;-44
2023/08/03 09:47:32;;;;;;;16.25;5.47;;;22.30;73.20;;;;;;5014577;28;20069;-48
2023/08/03 09:49:58;;;;;;;13.82;5.30;;;22.40;73.30;;;;;;5032014;28;20556;-42
2023/08/03 09:52:29;;;;;;;14.95;5.30;;;22.30;73.20;;;;;;5032109;28;20577;-47
2023/08/03 09:54:57;;;;;;;13.95;5.57;;;22.30;73.10;;;;;;5031739;28;20033;-44
2023/08/03 09:57:26;;;;;;;12.32;4.90;;;22.30;72.80;;;;;;5031937;28;20086;-51
2023/08/03 09:59:58;;;;;;;16.08;5.38;;;22.30;73.00;;;;;;5031874;28;20034;-48
2023/08/03 10:02:28;;;;;;;13.50;5.03;;;22.30;73.10;;;;;;5014450;28;20032;-46
2023/08/03 10:05:00;;;;;;;13.48;5.10;;;22.30;73.20;;;;;;5031562;28;20079;-45
2023/08/03 10:07:31;;;;;;;10.52;4.88;;;22.30;73.10;;;;;;5031841;28;20033;-45
2023/08/03 10:09:58;;;;;;;14.15;5.13;;;22.40;73.10;;;;;;5032581;28;20127;-45
2023/08/03 10:12:38;;;;;;;14.27;5.45;;;22.40;73.10;;;;;;5032083;28;20033;-51
2023/08/03 10:15:08;;;;;;;14.63;5.30;;;22.30;73.10;;;;;;5031493;28;20396;-51
2023/08/03 10:17:35;;;;;;;10.70;4.57;;;22.30;72.90;;;;;;5031726;28;20030;-46
2023/08/03 10:20:03;;;;;;;11.68;4.20;;;22.30;73.00;;;;;;5031595;28;20172;-47
2023/08/03 10:22:29;;;;;;;13.75;5.05;;;22.30;73.00;;;;;;5031588;28;20089;-44
2023/08/03 10:25:19;;;;;;;12.80;5.03;;;22.30;73.00;;;;;;5064579;23;20092;-50
2023/08/03 10:28:12;;;;;;;10.35;4.72;;;22.30;73.00;;;;;;5043863;28;20578;-48
2023/08/03 10:31:04;;;;;;;13.93;5.07;;;22.30;72.90;;;;;;5051383;28;20041;-47
2023/08/03 10:33:50;;;;;;;10.30;4.82;;;22.30;72.90;;;;;;5051346;28;20441;-48
2023/08/03 10:36:29;;;;;;;12.20;4.82;;;22.30;73.00;;;;;;5050987;28;20043;-46
2023/08/03 10:38:55;;;;;;;11.63;4.80;;;22.30;72.80;;;;;;5051339;28;20025;-49
2023/08/03 10:41:22;;;;;;;12.50;5.07;;;22.30;72.80;;;;;;5055135;28;20025;-48
2023/08/03 10:44:06;;;;;;;14.63;5.20;;;22.30;72.80;;;;;;5055455;28;20035;-47
2023/08/03 10:46:37;;;;;;;13.90;5.72;;;22.30;72.60;;;;;;5055043;28;20029;-46
2023/08/03 10:49:18;;;;;;;13.32;5.60;;;22.30;72.60;;;;;;5055309;28;20032;-46
2023/08/03 10:51:45;;;;;;;10.60;5.10;;;22.30;72.50;;;;;;5055311;28;20029;-53
2023/08/03 10:54:11;;;;;;;13.27;5.28;;;22.30;72.60;;;;;;5055228;28;20025;-47
2023/08/03 10:56:37;;;;;;;12.98;5.30;;;22.30;72.60;;;;;;5054859;28;20033;-51
2023/08/03 10:59:03;;;;;;;10.30;4.75;;;22.30;72.60;;;;;;5055132;28;20025;-46
2023/08/03 11:01:30;;;;;;;10.45;4.65;;;22.30;72.50;;;;;;5055156;28;20079;-48
2023/08/03 11:03:56;;;;;;;13.18;5.35;;;22.30;72.60;;;;;;5055288;28;20039;-47
2023/08/03 11:06:24;;;;;;;11.02;5.10;;;22.30;72.60;;;;;;5054774;28;20028;-46
2023/08/03 11:08:50;;;;;;;13.35;5.35;;;22.30;72.50;;;;;;5037200;28;20029;-51
2023/08/03 11:11:21;;;;;;;10.55;5.30;;;22.30;72.40;;;;;;5054920;28;20396;-46
2023/08/03 11:13:48;;;;;;;11.80;4.93;;;22.20;72.20;;;;;;5054966;28;20027;-52
2023/08/03 11:16:15;;;;;;;12.07;5.32;;;22.30;72.40;;;;;;5054580;28;20033;-49
2023/08/03 11:18:45;;;;;;;14.48;5.30;;;22.30;72.30;;;;;;5054870;28;20029;-49
2023/08/03 11:21:12;;;;;;;14.95;5.53;;;22.30;72.40;;;;;;5054912;28;20127;-52
2023/08/03 11:23:37;;;;;;;11.05;4.75;;;22.30;72.50;;;;;;5054701;28;20051;-48
2023/08/03 11:26:06;;;;;;;10.30;4.80;;;22.30;72.90;;;;;;5054599;28;20573;-53
2023/08/03 11:28:44;;;;;;;11.70;5.77;;;22.30;72.40;;;;;;5054829;28;20028;-53
2023/08/03 11:31:18;;;;;;;8.57;4.25;;;22.30;72.00;;;;;;5054681;28;20278;-51
2023/08/03 11:33:54;;;;;;;10.73;5.10;;;22.30;72.30;;;;;;5055374;28;20147;-50
2023/08/03 11:36:22;;;;;;;11.02;4.85;;;22.30;72.20;;;;;;5054775;28;20025;-46
2023/08/03 11:38:49;;;;;;;12.30;5.40;;;22.30;72.40;;;;;;5055827;28;20037;-47
2023/08/03 11:41:18;;;;;;;9.90;4.90;;;22.30;72.30;;;;;;5056365;28;20429;-50
2023/08/03 11:43:45;;;;;;;12.82;5.65;;;22.30;72.30;;;;;;5056275;28;20054;-48
2023/08/03 11:46:11;;;;;;;9.38;4.80;;;22.30;72.20;;;;;;5056529;28;20044;-48
2023/08/03 11:48:39;;;;;;;11.43;4.72;;;22.30;72.30;;;;;;5055896;28;20025;-47
2023/08/03 11:51:05;;;;;;;10.23;5.05;;;22.30;72.30;;;;;;5055009;28;20025;-49
2023/08/03 11:53:31;;;;;;;11.43;5.03;;;22.30;72.70;;;;;;5056139;28;20029;-51
2023/08/03 11:56:00;;;;;;;11.18;5.30;;;22.40;72.30;;;;;;5055421;28;20492;-51
2023/08/03 11:58:26;;;;;;;9.48;5.00;;;22.30;72.20;;;;;;5054884;28;20036;-51
2023/08/03 12:01:00;;;;;;;12.10;5.18;;;22.30;72.10;;;;;;5054876;28;20037;-48
2023/08/03 12:03:37;;;;;;;11.27;5.05;;;22.30;72.20;;;;;;5054855;28;20082;-53
2023/08/03 12:06:05;;;;;;;11.10;5.20;;;22.30;72.00;;;;;;5053975;28;20066;-52
2023/08/03 12:08:44;;;;;;;9.45;5.30;;;22.30;72.20;;;;;;5054351;28;20385;-51
2023/08/03 12:11:10;;;;;;;11.40;5.40;;;22.30;72.10;;;;;;5054051;28;20025;-52
2023/08/03 12:13:36;;;;;;;9.13;4.95;;;22.30;72.10;;;;;;5054329;28;20051;-47
2023/08/03 12:16:02;;;;;;;8.77;4.53;;;22.30;72.00;;;;;;5054309;28;20025;-51
2023/08/03 12:18:28;;;;;;;10.45;5.05;;;22.30;72.10;;;;;;5054679;28;20025;-53
2023/08/03 12:20:54;;;;;;;12.18;5.80;;;22.30;72.20;;;;;;5054308;28;20033;-48
2023/08/03 12:23:21;;;;;;;12.80;5.13;;;22.30;72.20;;;;;;5053829;28;20370;-50
2023/08/03 12:25:47;;;;;;;9.05;4.88;;;22.30;72.20;;;;;;5054443;28;20036;-48
2023/08/03 12:28:13;;;;;;;11.50;5.80;;;22.30;72.20;;;;;;5053661;28;20043;-50
2023/08/03 12:30:40;;;;;;;9.68;5.57;;;22.20;71.80;;;;;;5053579;28;20071;-51
2023/08/03 12:33:07;;;;;;;11.70;5.63;;;22.20;71.90;;;;;;5053429;28;20064;-51
2023/08/03 12:35:33;;;;;;;11.65;5.55;;;22.20;71.70;;;;;;5053133;28;20036;-50
2023/08/03 12:37:59;;;;;;;9.18;5.25;;;22.20;72.00;;;;;;5053434;28;20025;-46
2023/08/03 12:40:25;;;;;;;10.63;5.38;;;22.30;72.10;;;;;;5053328;28;20033;-48
2023/08/03 12:42:51;;;;;;;10.40;5.32;;;22.20;72.00;;;;;;5054455;28;20097;-51